createdAt,value
2019-06-27T00:00:17.179Z,0.00
2019-06-27T00:00:52.339Z,0.00
2019-06-27T00:01:27.962Z,0.00
2019-06-27T00:02:03.550Z,0.00
2019-06-27T00:02:39.015Z,0.00
2019-06-27T00:03:14.345Z,0.00
2019-06-27T00:03:49.811Z,0.00
2019-06-27T00:04:25.144Z,0.00
2019-06-27T00:05:00.305Z,0.00
2019-06-27T00:05:35.830Z,0.00
2019-06-27T00:06:11.189Z,0.00
2019-06-27T00:06:46.391Z,0.00
2019-06-27T00:07:21.629Z,0.00
2019-06-27T00:07:56.891Z,0.00
2019-06-27T00:08:32.323Z,0.00
2019-06-27T00:09:07.486Z,0.00
2019-06-27T00:09:42.815Z,0.00
2019-06-27T00:10:18.349Z,0.00
2019-06-27T00:10:53.614Z,0.00
2019-06-27T00:11:28.837Z,0.00
2019-06-27T00:12:04.547Z,0.00
2019-06-27T00:12:39.977Z,0.00
2019-06-27T00:13:15.537Z,0.00
2019-06-27T00:13:50.665Z,0.00
2019-06-27T00:14:26.019Z,0.00
2019-06-27T00:15:01.269Z,0.00
2019-06-27T00:15:36.231Z,0.00
2019-06-27T00:16:11.656Z,0.00
2019-06-27T00:16:46.954Z,0.00
2019-06-27T00:17:22.323Z,0.00
2019-06-27T00:17:57.861Z,0.00
2019-06-27T00:18:33.225Z,0.00
2019-06-27T00:19:08.549Z,0.00
2019-06-27T00:19:43.825Z,0.00
2019-06-27T00:20:18.948Z,0.00
2019-06-27T00:20:54.411Z,0.00
2019-06-27T00:21:29.845Z,0.00
2019-06-27T00:22:05.481Z,0.00
2019-06-27T00:22:41.397Z,0.00
2019-06-27T00:23:16.335Z,0.00
2019-06-27T00:23:51.966Z,0.00
2019-06-27T00:24:27.615Z,0.00
2019-06-27T00:25:03.101Z,0.00
2019-06-27T00:25:38.324Z,0.00
2019-06-27T00:26:13.896Z,0.00
2019-06-27T00:26:56.961Z,0.00
2019-06-27T00:27:24.624Z,0.00
2019-06-27T00:28:00.037Z,0.00
2019-06-27T00:28:35.201Z,0.00
2019-06-27T00:29:10.461Z,0.00
2019-06-27T00:29:45.791Z,0.00
2019-06-27T00:30:21.059Z,0.00
2019-06-27T00:30:56.499Z,0.00
2019-06-27T00:31:31.865Z,0.00
2019-06-27T00:32:07.150Z,0.00
2019-06-27T00:32:42.422Z,0.00
2019-06-27T00:33:17.843Z,0.00
2019-06-27T00:33:53.504Z,0.00
2019-06-27T00:34:28.780Z,0.00
2019-06-27T00:35:04.224Z,0.00
2019-06-27T00:35:39.562Z,0.00
2019-06-27T00:36:14.699Z,0.00
2019-06-27T00:36:50.306Z,0.00
2019-06-27T00:37:25.524Z,0.00
2019-06-27T00:38:01.091Z,0.00
2019-06-27T00:38:36.598Z,0.00
2019-06-27T00:39:11.884Z,0.00
2019-06-27T00:39:47.141Z,0.00
2019-06-27T00:40:22.563Z,0.00
2019-06-27T00:40:57.932Z,0.00
2019-06-27T00:41:33.353Z,0.00
2019-06-27T00:42:08.763Z,0.00
2019-06-27T00:42:44.071Z,0.00
2019-06-27T00:43:19.628Z,0.00
2019-06-27T00:43:55.395Z,0.00
2019-06-27T00:44:30.930Z,0.00
2019-06-27T00:45:06.387Z,0.00
2019-06-27T00:45:41.909Z,0.00
2019-06-27T00:46:17.173Z,0.00
2019-06-27T00:46:52.740Z,0.00
2019-06-27T00:47:28.006Z,0.00
2019-06-27T00:48:03.331Z,0.00
2019-06-27T00:48:38.707Z,0.00
2019-06-27T00:49:14.087Z,0.00
2019-06-27T00:49:49.311Z,0.00
2019-06-27T00:50:25.020Z,0.00
2019-06-27T00:51:00.148Z,0.00
2019-06-27T00:51:35.440Z,0.00
2019-06-27T00:52:10.773Z,0.00
2019-06-27T00:52:46.137Z,0.00
2019-06-27T00:53:21.467Z,0.00
2019-06-27T00:53:56.749Z,0.00
2019-06-27T00:54:32.081Z,0.00
2019-06-27T00:55:07.548Z,0.00
2019-06-27T00:55:42.886Z,0.00
2019-06-27T00:56:18.051Z,0.00
2019-06-27T00:56:53.349Z,0.00
2019-06-27T00:57:28.677Z,0.00
2019-06-27T00:58:04.148Z,0.00
2019-06-27T00:58:39.469Z,0.00
2019-06-27T00:59:14.848Z,0.00
2019-06-27T00:59:50.073Z,0.00
2019-06-27T01:00:25.455Z,0.00
2019-06-27T01:01:00.795Z,0.00
2019-06-27T01:01:36.188Z,0.00
2019-06-27T01:02:11.621Z,0.00
2019-06-27T01:02:46.996Z,0.00
2019-06-27T01:03:22.624Z,0.00
2019-06-27T01:03:57.895Z,0.00
2019-06-27T01:04:33.320Z,0.00
2019-06-27T01:05:08.892Z,0.00
2019-06-27T01:05:44.263Z,0.00
2019-06-27T01:06:19.497Z,0.00
2019-06-27T01:06:54.693Z,0.00
2019-06-27T01:07:30.221Z,0.00
2019-06-27T01:08:05.495Z,0.00
2019-06-27T01:08:41.026Z,0.00
2019-06-27T01:09:16.381Z,0.00
2019-06-27T01:09:51.822Z,0.00
2019-06-27T01:10:27.388Z,0.00
2019-06-27T01:11:02.793Z,0.00
2019-06-27T01:11:38.123Z,0.00
2019-06-27T01:12:13.607Z,0.00
2019-06-27T01:12:49.029Z,0.00
2019-06-27T01:13:24.391Z,0.00
2019-06-27T01:13:59.835Z,0.00
2019-06-27T01:14:35.296Z,0.00
2019-06-27T01:15:10.639Z,0.00
2019-06-27T01:15:45.913Z,0.00
2019-06-27T01:16:21.239Z,0.00
2019-06-27T01:16:56.339Z,0.00
2019-06-27T01:17:31.768Z,0.00
2019-06-27T01:18:07.058Z,0.00
2019-06-27T01:18:42.494Z,0.00
2019-06-27T01:19:17.859Z,0.00
2019-06-27T01:19:53.211Z,0.00
2019-06-27T01:20:28.574Z,0.00
2019-06-27T01:21:04.147Z,0.00
2019-06-27T01:21:39.423Z,0.00
2019-06-27T01:22:14.884Z,0.00
2019-06-27T01:22:50.247Z,0.00
2019-06-27T01:23:25.582Z,0.00
2019-06-27T01:24:01.115Z,0.00
2019-06-27T01:24:36.385Z,0.00
2019-06-27T01:25:11.617Z,0.00
2019-06-27T01:25:46.987Z,0.00
2019-06-27T01:26:22.025Z,0.00
2019-06-27T01:26:57.621Z,0.00
2019-06-27T01:27:33.309Z,0.00
2019-06-27T01:28:08.834Z,0.00
2019-06-27T01:28:44.099Z,0.00
2019-06-27T01:29:19.531Z,0.00
2019-06-27T01:29:55.404Z,0.00
2019-06-27T01:30:30.844Z,0.00
2019-06-27T01:31:06.115Z,0.00
2019-06-27T01:31:41.590Z,0.00
2019-06-27T01:32:16.931Z,0.00
2019-06-27T01:32:52.268Z,0.00
2019-06-27T01:33:27.630Z,0.00
2019-06-27T01:34:02.997Z,0.00
2019-06-27T01:34:38.240Z,0.00
2019-06-27T01:35:13.805Z,0.00
2019-06-27T01:35:48.851Z,0.00
2019-06-27T01:36:24.126Z,0.00
2019-06-27T01:36:59.494Z,0.00
2019-06-27T01:37:34.759Z,0.00
2019-06-27T01:38:10.104Z,0.00
2019-06-27T01:38:45.581Z,0.00
2019-06-27T01:39:20.921Z,0.00
2019-06-27T01:39:56.385Z,0.00
2019-06-27T01:40:31.829Z,0.00
2019-06-27T01:41:06.996Z,0.00
2019-06-27T01:41:42.279Z,0.00
2019-06-27T01:42:17.652Z,0.00
2019-06-27T01:42:53.187Z,0.00
2019-06-27T01:43:28.560Z,0.00
2019-06-27T01:44:04.131Z,0.00
2019-06-27T01:44:39.457Z,0.00
2019-06-27T01:45:14.830Z,0.00
2019-06-27T01:45:50.456Z,0.00
2019-06-27T01:46:25.829Z,0.00
2019-06-27T01:47:01.098Z,0.00
2019-06-27T01:47:36.364Z,0.00
2019-06-27T01:48:11.701Z,0.00
2019-06-27T01:48:47.260Z,0.00
2019-06-27T01:49:22.591Z,0.00
2019-06-27T01:49:58.067Z,0.00
2019-06-27T01:50:33.423Z,0.00
2019-06-27T01:51:08.559Z,0.00
2019-06-27T01:51:43.968Z,0.00
2019-06-27T01:52:19.203Z,0.00
2019-06-27T01:52:54.562Z,0.00
2019-06-27T01:53:30.053Z,0.00
2019-06-27T01:54:05.264Z,0.00
2019-06-27T01:54:40.699Z,0.00
2019-06-27T01:55:15.973Z,0.00
2019-06-27T01:55:51.341Z,0.00
2019-06-27T01:56:26.392Z,0.00
2019-06-27T01:57:01.694Z,0.00
2019-06-27T01:57:46.644Z,0.00
2019-06-27T01:58:12.609Z,0.00
2019-06-27T01:58:47.947Z,0.00
2019-06-27T01:59:23.214Z,0.00
2019-06-27T01:59:58.356Z,0.00
2019-06-27T02:00:33.746Z,0.00
2019-06-27T02:01:09.095Z,0.00
2019-06-27T02:01:44.503Z,0.00
2019-06-27T02:02:19.782Z,0.00
2019-06-27T02:02:55.225Z,0.00
2019-06-27T02:03:30.588Z,0.00
2019-06-27T02:04:05.626Z,0.00
2019-06-27T02:04:41.301Z,0.00
2019-06-27T02:05:16.445Z,0.00
2019-06-27T02:05:52.123Z,0.00
2019-06-27T02:06:27.249Z,0.00
2019-06-27T02:07:02.666Z,0.00
2019-06-27T02:07:37.956Z,0.00
2019-06-27T02:08:13.372Z,0.00
2019-06-27T02:08:49.039Z,0.00
2019-06-27T02:09:24.594Z,0.00
2019-06-27T02:09:59.855Z,0.00
2019-06-27T02:10:35.385Z,0.00
2019-06-27T02:11:10.863Z,0.00
2019-06-27T02:11:46.282Z,0.00
2019-06-27T02:12:21.309Z,0.00
2019-06-27T02:12:56.591Z,0.00
2019-06-27T02:13:31.834Z,0.00
2019-06-27T02:14:07.301Z,0.00
2019-06-27T02:14:42.465Z,0.00
2019-06-27T02:15:17.906Z,0.00
2019-06-27T02:15:53.565Z,0.00
2019-06-27T02:16:28.806Z,0.00
2019-06-27T02:17:04.214Z,0.00
2019-06-27T02:17:39.377Z,0.00
2019-06-27T02:18:14.703Z,0.00
2019-06-27T02:18:49.975Z,0.00
2019-06-27T02:19:25.313Z,0.00
2019-06-27T02:20:00.885Z,0.00
2019-06-27T02:20:36.236Z,0.00
2019-06-27T02:21:11.663Z,0.00
2019-06-27T02:21:46.958Z,0.00
2019-06-27T02:22:22.395Z,0.00
2019-06-27T02:22:57.480Z,0.00
2019-06-27T02:23:32.748Z,0.00
2019-06-27T02:24:07.978Z,0.00
2019-06-27T02:24:43.343Z,0.00
2019-06-27T02:25:18.877Z,0.00
2019-06-27T02:25:54.245Z,0.00
2019-06-27T02:26:29.818Z,0.00
2019-06-27T02:27:05.196Z,0.00
2019-06-27T02:27:40.662Z,0.00
2019-06-27T02:28:16.020Z,0.00
2019-06-27T02:28:51.192Z,0.00
2019-06-27T02:29:26.776Z,0.00
2019-06-27T02:30:02.422Z,0.00
2019-06-27T02:30:37.793Z,0.00
2019-06-27T02:31:13.112Z,0.00
2019-06-27T02:31:48.210Z,0.00
2019-06-27T02:32:23.889Z,0.00
2019-06-27T02:32:59.526Z,0.00
2019-06-27T02:33:34.906Z,0.00
2019-06-27T02:34:10.145Z,0.00
2019-06-27T02:34:45.829Z,0.00
2019-06-27T02:35:20.996Z,0.00
2019-06-27T02:35:56.240Z,0.00
2019-06-27T02:36:31.410Z,0.00
2019-06-27T02:37:07.096Z,0.00
2019-06-27T02:37:42.387Z,0.00
2019-06-27T02:38:17.647Z,0.00
2019-06-27T02:38:53.209Z,0.00
2019-06-27T02:39:28.544Z,0.00
2019-06-27T02:40:04.107Z,0.00
2019-06-27T02:40:39.271Z,0.00
2019-06-27T02:41:14.495Z,0.00
2019-06-27T02:41:49.962Z,0.00
2019-06-27T02:42:25.295Z,0.00
2019-06-27T02:43:00.872Z,0.00
2019-06-27T02:43:36.220Z,0.00
2019-06-27T02:44:11.686Z,0.00
2019-06-27T02:44:47.123Z,0.00
2019-06-27T02:45:22.496Z,0.00
2019-06-27T02:45:57.982Z,4.00
2019-06-27T02:46:33.311Z,4.00
2019-06-27T02:47:09.047Z,4.00
2019-06-27T02:47:44.262Z,0.00
2019-06-27T02:48:19.643Z,0.00
2019-06-27T02:48:54.673Z,0.00
2019-06-27T02:49:29.953Z,0.00
2019-06-27T02:50:05.317Z,4.00
2019-06-27T02:50:40.739Z,4.00
2019-06-27T02:51:16.277Z,4.00
2019-06-27T02:51:51.747Z,4.00
2019-06-27T02:52:27.418Z,4.00
2019-06-27T02:53:02.766Z,4.00
2019-06-27T02:53:38.035Z,4.00
2019-06-27T02:54:13.399Z,4.00
2019-06-27T02:54:48.869Z,4.00
2019-06-27T02:55:24.214Z,4.00
2019-06-27T02:55:59.587Z,4.00
2019-06-27T02:56:34.907Z,8.00
2019-06-27T02:57:10.580Z,4.00
2019-06-27T02:57:45.918Z,4.00
2019-06-27T02:58:31.055Z,4.00
2019-06-27T02:58:56.832Z,8.00
2019-06-27T02:59:32.571Z,8.00
2019-06-27T03:00:07.952Z,4.00
2019-06-27T03:00:43.135Z,4.00
2019-06-27T03:01:18.368Z,8.00
2019-06-27T03:01:53.996Z,8.00
2019-06-27T03:02:29.441Z,8.00
2019-06-27T03:03:04.716Z,8.00
2019-06-27T03:03:40.067Z,8.00
2019-06-27T03:04:15.242Z,8.00
2019-06-27T03:04:50.678Z,8.00
2019-06-27T03:05:25.949Z,12.00
2019-06-27T03:06:01.214Z,8.00
2019-06-27T03:06:36.598Z,12.00
2019-06-27T03:07:12.178Z,12.00
2019-06-27T03:07:47.415Z,12.00
2019-06-27T03:08:22.719Z,12.00
2019-06-27T03:08:58.413Z,12.00
2019-06-27T03:09:33.782Z,16.00
2019-06-27T03:10:09.335Z,12.00
2019-06-27T03:10:44.402Z,12.00
2019-06-27T03:11:19.675Z,16.00
2019-06-27T03:11:59.554Z,16.00
2019-06-27T03:12:30.537Z,16.00
2019-06-27T03:13:06.081Z,20.00
2019-06-27T03:13:41.268Z,16.00
2019-06-27T03:14:16.542Z,20.00
2019-06-27T03:14:51.787Z,20.00
2019-06-27T03:15:27.258Z,24.00
2019-06-27T03:16:02.310Z,24.00
2019-06-27T03:16:37.829Z,24.00
2019-06-27T03:17:13.064Z,24.00
2019-06-27T03:17:48.637Z,28.00
2019-06-27T03:18:23.976Z,28.00
2019-06-27T03:18:59.453Z,24.00
2019-06-27T03:19:34.589Z,32.00
2019-06-27T03:20:09.870Z,32.00
2019-06-27T03:20:45.452Z,32.00
2019-06-27T03:21:20.794Z,32.00
2019-06-27T03:21:56.395Z,36.00
2019-06-27T03:22:32.027Z,36.00
2019-06-27T03:23:08.198Z,36.00
2019-06-27T03:23:43.746Z,36.00
2019-06-27T03:24:19.215Z,36.00
2019-06-27T03:24:54.443Z,40.00
2019-06-27T03:25:30.014Z,40.00
2019-06-27T03:26:05.206Z,44.00
2019-06-27T03:26:40.589Z,44.00
2019-06-27T03:27:16.261Z,48.00
2019-06-27T03:27:51.601Z,48.00
2019-06-27T03:28:44.732Z,52.00
2019-06-27T03:29:02.054Z,56.00
2019-06-27T03:29:37.381Z,56.00
2019-06-27T03:30:12.982Z,52.00
2019-06-27T03:30:48.664Z,52.00
2019-06-27T03:31:24.185Z,56.00
2019-06-27T03:31:59.796Z,56.00
2019-06-27T03:32:35.065Z,56.00
2019-06-27T03:33:10.603Z,60.00
2019-06-27T03:33:45.847Z,60.00
2019-06-27T03:34:21.229Z,64.00
2019-06-27T03:34:56.962Z,64.00
2019-06-27T03:35:32.327Z,60.00
2019-06-27T03:36:07.675Z,60.00
2019-06-27T03:36:43.195Z,64.00
2019-06-27T03:37:18.376Z,64.00
2019-06-27T03:37:54.091Z,68.00
2019-06-27T03:38:29.170Z,72.00
2019-06-27T03:39:04.404Z,76.00
2019-06-27T03:39:40.142Z,80.00
2019-06-27T03:40:15.469Z,80.00
2019-06-27T03:40:51.171Z,84.00
2019-06-27T03:41:26.529Z,84.00
2019-06-27T03:42:02.047Z,88.00
2019-06-27T03:42:37.584Z,84.00
2019-06-27T03:43:12.853Z,84.00
2019-06-27T03:43:48.197Z,84.00
2019-06-27T03:44:23.555Z,84.00
2019-06-27T03:44:59.067Z,84.00
2019-06-27T03:45:34.109Z,84.00
2019-06-27T03:46:09.575Z,84.00
2019-06-27T03:46:45.148Z,84.00
2019-06-27T03:47:20.429Z,88.00
2019-06-27T03:47:56.183Z,84.00
2019-06-27T03:48:31.757Z,84.00
2019-06-27T03:49:06.898Z,88.00
2019-06-27T03:49:42.289Z,88.00
2019-06-27T03:50:17.653Z,88.00
2019-06-27T03:50:56.065Z,88.00
2019-06-27T03:51:28.284Z,92.00
2019-06-27T03:52:03.960Z,92.00
2019-06-27T03:52:39.430Z,92.00
2019-06-27T03:53:14.766Z,96.00
2019-06-27T03:53:50.039Z,96.00
2019-06-27T03:54:25.528Z,100.00
2019-06-27T03:55:00.959Z,104.00
2019-06-27T03:55:36.847Z,108.00
2019-06-27T03:56:12.472Z,112.00
2019-06-27T03:56:48.083Z,108.00
2019-06-27T03:57:23.429Z,112.00
2019-06-27T03:57:59.003Z,120.00
2019-06-27T03:58:34.276Z,124.00
2019-06-27T03:59:12.763Z,132.00
2019-06-27T03:59:45.099Z,140.00
2019-06-27T04:00:20.545Z,140.00
2019-06-27T04:00:56.020Z,140.00
2019-06-27T04:01:31.398Z,140.00
2019-06-27T04:02:06.927Z,140.00
2019-06-27T04:02:42.305Z,144.00
2019-06-27T04:03:17.837Z,148.00
2019-06-27T04:03:53.211Z,144.00
2019-06-27T04:04:28.537Z,152.00
2019-06-27T04:05:03.915Z,160.00
2019-06-27T04:05:39.278Z,168.00
2019-06-27T04:06:14.845Z,172.00
2019-06-27T04:06:50.467Z,176.00
2019-06-27T04:07:25.920Z,176.00
2019-06-27T04:08:01.286Z,176.00
2019-06-27T04:08:36.955Z,176.00
2019-06-27T04:09:12.300Z,184.00
2019-06-27T04:09:48.059Z,188.00
2019-06-27T04:10:23.627Z,200.00
2019-06-27T04:10:59.082Z,200.00
2019-06-27T04:11:34.545Z,200.00
2019-06-27T04:12:09.848Z,200.00
2019-06-27T04:12:45.092Z,208.00
2019-06-27T04:13:20.472Z,204.00
2019-06-27T04:13:56.422Z,208.00
2019-06-27T04:14:31.490Z,212.00
2019-06-27T04:15:07.149Z,200.00
2019-06-27T04:15:42.393Z,196.00
2019-06-27T04:16:17.860Z,204.00
2019-06-27T04:16:53.393Z,212.00
2019-06-27T04:17:29.003Z,216.00
2019-06-27T04:18:04.485Z,232.00
2019-06-27T04:18:39.818Z,240.00
2019-06-27T04:19:15.396Z,244.00
2019-06-27T04:19:50.637Z,264.00
2019-06-27T04:20:26.423Z,284.00
2019-06-27T04:21:01.775Z,292.00
2019-06-27T04:21:37.262Z,300.00
2019-06-27T04:22:17.114Z,312.00
2019-06-27T04:22:47.807Z,312.00
2019-06-27T04:23:23.084Z,324.00
2019-06-27T04:23:58.420Z,336.00
2019-06-27T04:24:33.802Z,368.00
2019-06-27T04:25:09.038Z,392.00
2019-06-27T04:25:44.421Z,412.00
2019-06-27T04:26:19.762Z,420.00
2019-06-27T04:26:55.030Z,420.00
2019-06-27T04:27:30.489Z,424.00
2019-06-27T04:28:05.831Z,416.00
2019-06-27T04:28:40.983Z,432.00
2019-06-27T04:29:32.882Z,456.00
2019-06-27T04:29:52.035Z,448.00
2019-06-27T04:30:27.181Z,420.00
2019-06-27T04:31:02.458Z,416.00
2019-06-27T04:31:37.681Z,432.00
2019-06-27T04:32:13.254Z,440.00
2019-06-27T04:32:49.010Z,448.00
2019-06-27T04:33:24.421Z,468.00
2019-06-27T04:33:59.754Z,492.00
2019-06-27T04:34:35.145Z,508.00
2019-06-27T04:35:10.723Z,504.00
2019-06-27T04:35:45.869Z,516.00
2019-06-27T04:36:21.248Z,544.00
2019-06-27T04:36:56.898Z,572.00
2019-06-27T04:37:32.679Z,588.00
2019-06-27T04:38:07.945Z,592.00
2019-06-27T04:38:43.267Z,592.00
2019-06-27T04:39:18.542Z,572.00
2019-06-27T04:39:54.082Z,560.00
2019-06-27T04:40:29.464Z,544.00
2019-06-27T04:41:04.802Z,528.00
2019-06-27T04:41:39.894Z,492.00
2019-06-27T04:42:15.353Z,508.00
2019-06-27T04:42:50.737Z,516.00
2019-06-27T04:43:26.018Z,540.00
2019-06-27T04:44:01.201Z,552.00
2019-06-27T04:44:36.489Z,520.00
2019-06-27T04:45:12.029Z,496.00
2019-06-27T04:45:47.522Z,488.00
2019-06-27T04:46:22.848Z,488.00
2019-06-27T04:46:58.422Z,508.00
2019-06-27T04:47:33.956Z,512.00
2019-06-27T04:48:09.227Z,496.00
2019-06-27T04:48:44.689Z,500.00
2019-06-27T04:49:20.502Z,500.00
2019-06-27T04:49:55.870Z,508.00
2019-06-27T04:50:31.103Z,504.00
2019-06-27T04:51:06.380Z,524.00
2019-06-27T04:51:41.624Z,528.00
2019-06-27T04:52:17.417Z,540.00
2019-06-27T04:52:52.893Z,508.00
2019-06-27T04:53:28.228Z,488.00
2019-06-27T04:54:03.498Z,464.00
2019-06-27T04:54:38.987Z,428.00
2019-06-27T04:55:14.358Z,412.00
2019-06-27T04:55:49.888Z,420.00
2019-06-27T04:56:25.173Z,432.00
2019-06-27T04:57:00.563Z,440.00
2019-06-27T04:57:36.210Z,448.00
2019-06-27T04:58:11.683Z,444.00
2019-06-27T04:58:47.109Z,448.00
2019-06-27T04:59:23.181Z,468.00
2019-06-27T04:59:58.638Z,496.00
2019-06-27T05:00:34.113Z,524.00
2019-06-27T05:01:09.379Z,548.00
2019-06-27T05:01:45.394Z,580.00
2019-06-27T05:02:20.624Z,600.00
2019-06-27T05:02:56.300Z,588.00
2019-06-27T05:03:31.949Z,564.00
2019-06-27T05:04:07.369Z,544.00
2019-06-27T05:04:42.924Z,540.00
2019-06-27T05:05:18.710Z,552.00
2019-06-27T05:05:54.057Z,568.00
2019-06-27T05:06:29.750Z,572.00
2019-06-27T05:07:05.130Z,596.00
2019-06-27T05:07:40.633Z,656.00
2019-06-27T05:08:16.171Z,732.00
2019-06-27T05:08:51.886Z,776.00
2019-06-27T05:09:27.022Z,816.00
2019-06-27T05:10:02.347Z,860.00
2019-06-27T05:10:37.793Z,948.00
2019-06-27T05:11:13.376Z,984.00
2019-06-27T05:11:49.211Z,1204.00
2019-06-27T05:12:24.803Z,1236.00
2019-06-27T05:13:00.166Z,1208.00
2019-06-27T05:13:35.802Z,1028.00
2019-06-27T05:14:11.149Z,1052.00
2019-06-27T05:14:46.460Z,1168.00
2019-06-27T05:15:21.683Z,1216.00
2019-06-27T05:15:57.292Z,1224.00
2019-06-27T05:16:32.632Z,1460.00
2019-06-27T05:17:08.309Z,1212.00
2019-06-27T05:17:43.474Z,1260.00
2019-06-27T05:18:18.767Z,1264.00
2019-06-27T05:18:54.583Z,1192.00
2019-06-27T05:19:30.088Z,1148.00
2019-06-27T05:20:05.843Z,1096.00
2019-06-27T05:20:41.249Z,1188.00
2019-06-27T05:21:16.489Z,1144.00
2019-06-27T05:21:52.192Z,1156.00
2019-06-27T05:22:28.166Z,1360.00
2019-06-27T05:23:03.563Z,1160.00
2019-06-27T05:23:38.954Z,1228.00
2019-06-27T05:24:14.857Z,1264.00
2019-06-27T05:24:50.054Z,1240.00
2019-06-27T05:25:29.305Z,1208.00
2019-06-27T05:26:01.749Z,1140.00
2019-06-27T05:26:37.136Z,1156.00
2019-06-27T05:27:12.481Z,1180.00
2019-06-27T05:27:47.975Z,1160.00
2019-06-27T05:28:23.242Z,1136.00
2019-06-27T05:28:58.596Z,1048.00
2019-06-27T05:29:34.073Z,988.00
2019-06-27T05:30:10.606Z,1008.00
2019-06-27T05:30:45.063Z,1068.00
2019-06-27T05:31:20.352Z,1104.00
2019-06-27T05:31:56.014Z,1148.00
2019-06-27T05:32:31.501Z,1132.00
2019-06-27T05:33:07.164Z,1140.00
2019-06-27T05:33:42.898Z,1128.00
2019-06-27T05:34:18.426Z,1136.00
2019-06-27T05:34:54.033Z,1144.00
2019-06-27T05:35:29.685Z,1268.00
2019-06-27T05:36:05.260Z,1360.00
2019-06-27T05:36:40.845Z,1360.00
2019-06-27T05:37:16.326Z,1456.00
2019-06-27T05:37:51.502Z,1420.00
2019-06-27T05:38:26.694Z,1488.00
2019-06-27T05:39:02.068Z,1600.00
2019-06-27T05:39:37.565Z,1680.00
2019-06-27T05:40:12.774Z,1720.00
2019-06-27T05:40:48.306Z,1632.00
2019-06-27T05:41:23.746Z,1768.00
2019-06-27T05:41:59.425Z,1796.00
2019-06-27T05:42:34.869Z,1720.00
2019-06-27T05:43:10.261Z,1956.00
2019-06-27T05:43:45.539Z,1880.00
2019-06-27T05:44:20.824Z,2016.00
2019-06-27T05:44:56.078Z,2180.00
2019-06-27T05:45:31.458Z,1776.00
2019-06-27T05:46:07.112Z,1940.00
2019-06-27T05:46:42.829Z,2176.00
2019-06-27T05:47:18.346Z,2284.00
2019-06-27T05:47:53.657Z,2316.00
2019-06-27T05:48:28.886Z,1636.00
2019-06-27T05:49:04.418Z,2192.00
2019-06-27T05:49:39.965Z,2272.00
2019-06-27T05:50:15.440Z,2084.00
2019-06-27T05:50:50.483Z,2304.00
2019-06-27T05:51:25.788Z,2032.00
2019-06-27T05:52:01.358Z,1620.00
2019-06-27T05:52:37.027Z,1708.00
2019-06-27T05:53:12.271Z,1824.00
2019-06-27T05:53:47.672Z,2240.00
2019-06-27T05:54:22.932Z,2456.00
2019-06-27T05:54:58.217Z,2520.00
2019-06-27T05:55:33.688Z,2508.00
2019-06-27T05:56:08.834Z,1828.00
2019-06-27T05:56:44.266Z,1844.00
2019-06-27T05:57:19.563Z,1836.00
2019-06-27T05:57:55.001Z,1724.00
2019-06-27T05:58:30.509Z,2232.00
2019-06-27T05:59:05.890Z,1760.00
2019-06-27T05:59:41.164Z,1632.00
2019-06-27T06:00:27.597Z,1428.00
2019-06-27T06:00:51.946Z,1456.00
2019-06-27T06:01:27.452Z,2568.00
2019-06-27T06:02:02.936Z,1608.00
2019-06-27T06:02:38.237Z,1732.00
2019-06-27T06:03:13.336Z,1640.00
2019-06-27T06:03:48.797Z,2080.00
2019-06-27T06:04:24.243Z,1848.00
2019-06-27T06:04:59.414Z,2124.00
2019-06-27T06:05:34.993Z,2884.00
2019-06-27T06:06:10.549Z,3080.00
2019-06-27T06:06:45.925Z,3140.00
2019-06-27T06:07:21.269Z,3228.00
2019-06-27T06:07:56.440Z,3176.00
2019-06-27T06:08:31.896Z,3248.00
2019-06-27T06:09:07.407Z,3348.00
2019-06-27T06:09:42.656Z,3444.00
2019-06-27T06:10:17.951Z,3332.00
2019-06-27T06:10:53.088Z,3304.00
2019-06-27T06:11:29.076Z,3392.00
2019-06-27T06:12:04.627Z,3388.00
2019-06-27T06:12:40.414Z,3528.00
2019-06-27T06:13:15.847Z,3496.00
2019-06-27T06:13:51.473Z,3536.00
2019-06-27T06:14:26.697Z,3208.00
2019-06-27T06:15:02.182Z,3040.00
2019-06-27T06:15:37.695Z,2284.00
2019-06-27T06:16:13.014Z,2856.00
2019-06-27T06:16:48.464Z,3212.00
2019-06-27T06:17:24.244Z,3112.00
2019-06-27T06:17:59.691Z,3908.00
2019-06-27T06:18:35.263Z,3880.00
2019-06-27T06:19:10.738Z,4040.00
2019-06-27T06:19:46.325Z,3920.00
2019-06-27T06:20:21.671Z,3700.00
2019-06-27T06:20:57.060Z,3876.00
2019-06-27T06:21:32.298Z,3728.00
2019-06-27T06:22:08.069Z,3736.00
2019-06-27T06:22:43.311Z,3832.00
2019-06-27T06:23:18.997Z,3892.00
2019-06-27T06:23:54.679Z,4080.00
2019-06-27T06:24:30.261Z,4200.00
2019-06-27T06:25:05.416Z,4256.00
2019-06-27T06:25:41.012Z,3944.00
2019-06-27T06:26:16.423Z,4060.00
2019-06-27T06:26:52.038Z,4028.00
2019-06-27T06:27:27.559Z,4176.00
2019-06-27T06:28:02.940Z,4224.00
2019-06-27T06:28:38.317Z,4156.00
2019-06-27T06:29:13.594Z,4280.00
2019-06-27T06:29:49.163Z,4540.00
2019-06-27T06:30:24.618Z,4752.00
2019-06-27T06:31:00.265Z,4760.00
2019-06-27T06:31:35.760Z,4780.00
2019-06-27T06:32:11.197Z,4796.00
2019-06-27T06:32:46.897Z,4604.00
2019-06-27T06:33:22.320Z,4696.00
2019-06-27T06:33:57.843Z,4744.00
2019-06-27T06:34:33.321Z,4480.00
2019-06-27T06:35:08.470Z,3904.00
2019-06-27T06:35:43.859Z,4008.00
2019-06-27T06:36:19.210Z,5092.00
2019-06-27T06:36:54.770Z,4992.00
2019-06-27T06:37:30.032Z,4788.00
2019-06-27T06:38:05.390Z,4552.00
2019-06-27T06:38:40.894Z,4380.00
2019-06-27T06:39:16.445Z,4300.00
2019-06-27T06:39:52.139Z,4292.00
2019-06-27T06:40:27.584Z,4296.00
2019-06-27T06:41:02.799Z,4300.00
2019-06-27T06:41:38.042Z,4308.00
2019-06-27T06:42:13.517Z,4324.00
2019-06-27T06:42:48.963Z,4372.00
2019-06-27T06:43:24.251Z,4456.00
2019-06-27T06:43:59.737Z,4456.00
2019-06-27T06:44:35.144Z,4504.00
2019-06-27T06:45:10.601Z,4616.00
2019-06-27T06:45:46.286Z,4668.00
2019-06-27T06:46:21.741Z,4776.00
2019-06-27T06:46:57.032Z,4752.00
2019-06-27T06:47:32.280Z,4720.00
2019-06-27T06:48:07.680Z,4688.00
2019-06-27T06:48:43.265Z,4716.00
2019-06-27T06:49:18.649Z,4704.00
2019-06-27T06:49:54.198Z,4680.00
2019-06-27T06:50:29.512Z,4708.00
2019-06-27T06:51:04.726Z,4752.00
2019-06-27T06:51:40.734Z,4744.00
2019-06-27T06:52:15.978Z,4776.00
2019-06-27T06:52:51.563Z,4820.00
2019-06-27T06:53:27.012Z,4812.00
2019-06-27T06:54:02.837Z,4788.00
2019-06-27T06:54:38.175Z,4660.00
2019-06-27T06:55:13.976Z,4724.00
2019-06-27T06:55:49.226Z,4920.00
2019-06-27T06:56:24.622Z,4848.00
2019-06-27T06:57:00.093Z,4968.00
2019-06-27T06:57:36.052Z,4976.00
2019-06-27T06:58:11.637Z,4944.00
2019-06-27T06:58:46.777Z,5024.00
2019-06-27T06:59:22.124Z,5088.00
2019-06-27T06:59:57.302Z,5056.00
2019-06-27T07:00:32.753Z,5044.00
2019-06-27T07:01:07.924Z,5092.00
2019-06-27T07:01:45.610Z,5152.00
2019-06-27T07:02:18.799Z,5088.00
2019-06-27T07:02:54.224Z,5200.00
2019-06-27T07:03:29.715Z,5260.00
2019-06-27T07:04:05.294Z,5236.00
2019-06-27T07:04:40.776Z,5240.00
2019-06-27T07:05:16.020Z,5164.00
2019-06-27T07:05:51.531Z,5196.00
2019-06-27T07:06:26.758Z,5324.00
2019-06-27T07:07:02.166Z,5376.00
2019-06-27T07:07:37.636Z,5448.00
2019-06-27T07:08:12.889Z,5452.00
2019-06-27T07:08:48.377Z,5512.00
2019-06-27T07:09:23.956Z,5544.00
2019-06-27T07:09:59.528Z,5584.00
2019-06-27T07:10:34.886Z,5648.00
2019-06-27T07:11:10.262Z,5644.00
2019-06-27T07:11:45.745Z,5596.00
2019-06-27T07:12:20.970Z,5692.00
2019-06-27T07:12:56.271Z,5680.00
2019-06-27T07:13:31.533Z,5504.00
2019-06-27T07:14:06.957Z,5712.00
2019-06-27T07:14:42.674Z,5804.00
2019-06-27T07:15:18.065Z,5812.00
2019-06-27T07:15:53.499Z,5868.00
2019-06-27T07:16:28.877Z,5876.00
2019-06-27T07:17:03.912Z,5828.00
2019-06-27T07:17:39.412Z,5820.00
2019-06-27T07:18:14.663Z,5856.00
2019-06-27T07:18:50.175Z,5968.00
2019-06-27T07:19:25.331Z,5980.00
2019-06-27T07:20:00.729Z,6008.00
2019-06-27T07:20:36.083Z,6016.00
2019-06-27T07:21:11.870Z,6012.00
2019-06-27T07:21:47.241Z,6068.00
2019-06-27T07:22:22.692Z,6144.00
2019-06-27T07:22:58.041Z,6176.00
2019-06-27T07:23:33.336Z,6144.00
2019-06-27T07:24:09.226Z,6148.00
2019-06-27T07:24:44.609Z,6156.00
2019-06-27T07:25:20.062Z,6184.00
2019-06-27T07:25:55.744Z,6108.00
2019-06-27T07:26:31.412Z,6148.00
2019-06-27T07:27:06.794Z,6192.00
2019-06-27T07:27:42.037Z,6156.00
2019-06-27T07:28:17.438Z,6208.00
2019-06-27T07:28:52.713Z,6220.00
2019-06-27T07:29:28.421Z,6288.00
2019-06-27T07:30:03.732Z,6248.00
2019-06-27T07:30:39.088Z,6276.00